San Angelo Regional Mathis Field
KSJT : now visible

Airfield :











YOU CAN JOIN US ON...

 
LOGIN :

Register | Disclaimer

   EN    FR    IT 

 









Legend :    VFR   Marginal VFR   IFR   Intensive IFR   Very Intensive IFR
Visi :
Ceiling :
>= 8 km
>= 3000ft
5 to 8 km
1000 to 3000 ft
1500m to 5 km
500 to 1000 ft
800 to 1500m
200 to 500 ft
< 800m
< 200 ft
Symbols :   Thunderstorms  Fog  Heavy snow  Heavy precipitations  Wind > 20 kt







- Airport Elevation : 1919 ft
- IATA code : SJT


KSJT - San Angelo Regional Mathis Field

CURRENT METAR :
  • 221251Z 19005KT 10SM CLR 24/17 A2999 RMK AO2 SLP128 T02440172

EXPIRED METARs :
  • 221151Z AUTO 21005KT 10SM CLR 24/17 A2998 RMK AO2 SLP123 T02390167 10278 20233 53006
  • 221051Z AUTO 18005KT 10SM CLR 25/17 A2996 RMK AO2 SLP118 T02500172

TAF KSJT
Valid from the 22 at 12:00 until the 23 at 12:00 UTC


221123Z 2212/2312 19006KT P6SM SKC
FM221800 16008G16KT P6SM SCT090
FM230200 15007KT P6SM SKC
No reported NOTAMs for that airfield.



MET'MAP, your aeronautical weather chart ! - Copyright ORBIFLY December 2007 - Disclaimer

ORBIFLY MET'MAP TEAM :

Programming & Development : Alexandra Zaïnal
Concept & Development : Baudouin d'Aumeries
Co-Development & Prog : Marc-Olivier Méhu
Technical & hardware support : Manuel Goepfert

Contact : metmap@orbifly.com




SOURCES & CREDITS :

   NOAA       Earth
Advisory